Formoso, Kansas
Current Conditions -  °F | °C
As of 5:55 PM on Monday 22 Dec 2014 (Local Time) from KCNK Reporting Station
Broken Clouds Broken Clouds  
Wind Chill: 40°   Ceiling: 8000
Heat Index: 44°   Visibility: 10mi
Dew Point: 32°   Wind: 7mph
Humidity: 63%   Direction: 320°NW
Pressure: 29.53"   Gusts: NA
Location:  39.78°N, 97.99°W
Report Text: KCNK 222355Z AUTO 32006KT 10SM FEW065 BKN080 07/00 A2953 RMK AO2 SLP002 T00670000 10106 20067 51018
Loading
Personal Weather Stations






























Interactive Weather Map New forecast layout! Learn more

10-Day Weather Forecast

Advertisements
Track Severe Weather on mobile